www.bettendroffer.lu
Wetterdaten: Woche 14.03.11 - 20.03.11 (KW11)
Datum Zeit Temp. 1 ext. Temp. 3 Feuchte 1 Feuchte 3 Luftdruck Regen Wind Richtung Taupunkt Windchill
14.03.2011 00:00 9,1 C 9,1 C 47 % 57 % 1003 hPa 0,0 l/m 0,0 km/h (0 Bft) - - -1,8 C 9,1 C
14.03.2011 01:00 9,0 C 8,8 C 48 % 60 % 1003 hPa 0,0 l/m 0,0 km/h (0 Bft) - - -1,5 C 9,0 C
14.03.2011 02:00 8,1 C 7,9 C 50 % 61 % 1004 hPa 0,0 l/m 0,0 km/h (0 Bft) - - -1,6 C 8,1 C
14.03.2011 03:00 7,9 C 7,7 C 56 % 65 % 1004 hPa 0,0 l/m 0,0 km/h (0 Bft) - - -0,3 C 7,9 C
14.03.2011 04:00 7,9 C 7,7 C 59 % 67 % 1005 hPa 0,0 l/m 0,0 km/h (0 Bft) - - 0,3 C 7,9 C
14.03.2011 05:00 7,9 C 7,7 C 65 % 69 % 1005 hPa 0,0 l/m 0,0 km/h (0 Bft) - - 1,7 C 7,9 C
14.03.2011 06:00 7,6 C 7,4 C 68 % 69 % 1006 hPa 0,0 l/m 0,0 km/h (0 Bft) - - 1,9 C 7,6 C
14.03.2011 07:00 7,8 C 7,4 C 68 % 71 % 1007 hPa 0,0 l/m 0,0 km/h (0 Bft) - - 2,2 C 7,8 C
14.03.2011 08:00 8,4 C 8,5 C 67 % 72 % 1007 hPa 0,0 l/m 0,0 km/h (0 Bft) - - 2,6 C 8,4 C
14.03.2011 09:00 8,6 C 18,4 C 63 % 47 % 1008 hPa 0,0 l/m 0,0 km/h (0 Bft) - - 1,9 C 8,6 C
14.03.2011 10:00 11,5 C 18,3 C 37 % 24 % 1009 hPa 0,0 l/m 0,0 km/h (0 Bft) - - -2,8 C 11,5 C
14.03.2011 11:00 13,5 C 13,6 C 25 % 35 % 1009 hPa 0,0 l/m 0,0 km/h (0 Bft) - - -6,4 C 13,5 C
14.03.2011 12:00 14,3 C 14,7 C 20 % 28 % 1009 hPa 0,0 l/m 0,0 km/h (0 Bft) - - -8,4 C 14,3 C
14.03.2011 13:00 15,1 C 14,6 C 20 % 28 % 1009 hPa 0,0 l/m 0,0 km/h (0 Bft) - - -7,7 C 15,1 C
14.03.2011 14:00 14,3 C 14,4 C 20 % 28 % 1009 hPa 0,0 l/m 0,0 km/h (0 Bft) - - -8,3 C 14,3 C
14.03.2011 15:00 13,4 C 13,5 C 20 % 31 % 1009 hPa 0,0 l/m 0,0 km/h (0 Bft) - - -9,0 C 13,4 C
14.03.2011 16:00 13,9 C 13,6 C 20 % 31 % 1009 hPa 0,0 l/m 0,0 km/h (0 Bft) - - -8,7 C 13,9 C
14.03.2011 17:00 13,4 C 13,2 C 20 % 32 % 1009 hPa 0,0 l/m 0,0 km/h (0 Bft) - - -9,0 C 13,4 C
14.03.2011 18:00 11,9 C 12,1 C 22 % 36 % 1009 hPa 0,0 l/m 0,0 km/h (0 Bft) - - -9,5 C 11,9 C
14.03.2011 19:00 9,5 C 9,1 C 33 % 49 % 1010 hPa 0,4 l/m 0,0 km/h (0 Bft) - - -6,0 C 9,5 C
14.03.2011 20:00 7,9 C 7,6 C 37 % 53 % 1010 hPa 0,0 l/m 0,0 km/h (0 Bft) - - -5,9 C 7,9 C
14.03.2011 21:00 6,1 C 5,8 C 43 % 56 % 1010 hPa 0,0 l/m 0,0 km/h (0 Bft) - - -5,7 C 6,1 C
14.03.2011 22:00 4,8 C 4,8 C 44 % 59 % 1010 hPa 0,0 l/m 0,0 km/h (0 Bft) - - -6,4 C 4,8 C
14.03.2011 23:00 3,7 C 3,3 C 48 % 62 % 1010 hPa 0,0 l/m 0,0 km/h (0 Bft) - - -6,4 C 3,7 C
15.03.2011 00:00 2,8 C 2,5 C 51 % 64 % 1010 hPa 0,0 l/m 0,0 km/h (0 Bft) - - -6,4 C 2,8 C
15.03.2011 01:00 2,2 C 1,5 C 56 % 68 % 1010 hPa 0,0 l/m 0,0 km/h (0 Bft) - - -5,7 C 2,2 C
15.03.2011 02:00 1,8 C 5,7 C 58 % 69 % 1010 hPa 0,0 l/m 0,0 km/h (0 Bft) - - -5,6 C 1,8 C
15.03.2011 03:00 1,5 C 1,0 C 60 % 71 % 1010 hPa 0,0 l/m 0,0 km/h (0 Bft) - - -5,4 C 1,5 C
15.03.2011 04:00 1,0 C 0,3 C 62 % 71 % 1009 hPa 0,0 l/m 0,0 km/h (0 Bft) - - -5,6 C 1,0 C
15.03.2011 05:00 1,3 C 0,3 C 65 % 71 % 1009 hPa 0,0 l/m 0,0 km/h (0 Bft) - - -4,6 C 1,3 C
15.03.2011 06:00 1,2 C 0,9 C 67 % 76 % 1009 hPa 0,0 l/m 0,0 km/h (0 Bft) - - -4,3 C 1,2 C
15.03.2011 07:00 1,5 C 1,2 C 70 % 77 % 1009 hPa 0,0 l/m 0,0 km/h (0 Bft) - - -3,4 C 1,5 C
15.03.2011 08:00 2,4 C 2,2 C 71 % 79 % 1010 hPa 0,0 l/m 0,0 km/h (0 Bft) - - -2,3 C 2,4 C
15.03.2011 09:00 4,5 C 10,4 C 73 % 59 % 1009 hPa 0,0 l/m 0,0 km/h (0 Bft) - - -0,0 C 4,5 C
15.03.2011 10:00 9,5 C 24,0 C 61 % 21 % 1008 hPa 0,0 l/m 0,0 km/h (0 Bft) - - 2,0 C 9,5 C
15.03.2011 11:00 14,2 C 24,7 C 24 % 20 % 1008 hPa 0,0 l/m 0,0 km/h (0 Bft) - - -6,2 C 14,2 C
15.03.2011 12:00 21,6 C 29,5 C 20 % 20 % 1007 hPa 0,0 l/m 0,0 km/h (0 Bft) - - -2,3 C 21,6 C
15.03.2011 13:00 26,1 C 26,6 C 20 % 20 % 1006 hPa 0,0 l/m 0,0 km/h (0 Bft) - - 1,4 C 26,1 C
15.03.2011 14:00 25,4 C 24,6 C 20 % 20 % 1006 hPa 0,0 l/m 0,0 km/h (0 Bft) - - 0,8 C 25,4 C
15.03.2011 15:00 27,6 C 26,1 C 20 % 20 % 1005 hPa 0,0 l/m 0,0 km/h (0 Bft) - - 2,7 C 27,6 C
15.03.2011 16:00 23,3 C 20,1 C 20 % 20 % 1005 hPa 0,0 l/m 0,0 km/h (0 Bft) - - -0,9 C 23,3 C
15.03.2011 17:00 18,6 C 17,7 C 20 % 20 % 1005 hPa 0,0 l/m 0,0 km/h (0 Bft) - - -4,8 C 18,6 C
15.03.2011 18:00 15,9 C 15,3 C 20 % 22 % 1005 hPa 0,0 l/m 0,0 km/h (0 Bft) - - -7,0 C 15,9 C
15.03.2011 19:00 12,4 C 11,8 C 20 % 33 % 1005 hPa 0,0 l/m 0,0 km/h (0 Bft) - - -9,9 C 12,4 C
15.03.2011 20:00 10,3 C 9,8 C 24 % 40 % 1005 hPa 0,0 l/m 0,0 km/h (0 Bft) - - -9,7 C 10,3 C
15.03.2011 21:00 10,6 C 10,1 C 28 % 44 % 1005 hPa 0,0 l/m 0,0 km/h (0 Bft) - - -7,1 C 10,6 C
15.03.2011 22:00 11,6 C 11,4 C 27 % 42 % 1005 hPa 0,0 l/m 0,0 km/h (0 Bft) - - -6,7 C 11,6 C
15.03.2011 23:00 11,1 C 10,9 C 31 % 46 % 1005 hPa 0,0 l/m 0,0 km/h (0 Bft) - - -5,6 C 11,1 C
16.03.2011 00:00 10,4 C 10,4 C 33 % 47 % 1004 hPa 0,0 l/m 0,0 km/h (0 Bft) - - -5,4 C 10,4 C
16.03.2011 01:00 9,8 C 9,4 C 35 % 50 % 1004 hPa 0,0 l/m 0,0 km/h (0 Bft) - - -4,9 C 9,8 C
16.03.2011 02:00 9,1 C 8,4 C 37 % 54 % 1003 hPa 0,0 l/m 0,0 km/h (0 Bft) - - -4,8 C 9,1 C
16.03.2011 03:00 8,4 C 8,1 C 39 % 55 % 1003 hPa 0,0 l/m 0,0 km/h (0 Bft) - - -4,9 C 8,4 C
16.03.2011 04:00 8,1 C 7,8 C 39 % 54 % 1003 hPa 0,0 l/m 0,0 km/h (0 Bft) - - -5,2 C 8,1 C
16.03.2011 05:00 7,6 C 7,0 C 41 % 56 % 1002 hPa 0,0 l/m 0,0 km/h (0 Bft) - - -5,0 C 7,6 C
16.03.2011 06:00 7,4 C 7,1 C 42 % 57 % 1002 hPa 0,0 l/m 0,0 km/h (0 Bft) - - -4,8 C 7,4 C
16.03.2011 07:00 7,2 C 7,0 C 43 % 58 % 1002 hPa 0,0 l/m 0,0 km/h (0 Bft) - - -4,5 C 7,2 C
16.03.2011 08:00 7,9 C 8,2 C 40 % 53 % 1002 hPa 0,0 l/m 0,0 km/h (0 Bft) - - -4,9 C 7,9 C
16.03.2011 09:00 9,3 C 11,6 C 35 % 39 % 1002 hPa 0,0 l/m 0,0 km/h (0 Bft) - - -5,6 C 9,3 C
16.03.2011 10:00 11,0 C 16,8 C 27 % 23 % 1001 hPa 0,0 l/m 0,0 km/h (0 Bft) - - -7,5 C 11,0 C
16.03.2011 11:00 12,9 C 20,3 C 20 % 20 % 1001 hPa 0,0 l/m 0,0 km/h (0 Bft) - - -9,5 C 12,9 C
16.03.2011 12:00 15,3 C 20,0 C 20 % 20 % 1000 hPa 0,0 l/m 0,0 km/h (0 Bft) - - -7,5 C 15,3 C
16.03.2011 13:00 14,6 C 15,6 C 20 % 23 % 1000 hPa 0,0 l/m 0,0 km/h (0 Bft) - - -8,0 C 14,6 C
16.03.2011 14:00 15,3 C 14,6 C 20 % 27 % 999 hPa 0,0 l/m 0,0 km/h (0 Bft) - - -7,5 C 15,3 C
16.03.2011 15:00 13,3 C 12,9 C 20 % 33 % 999 hPa 0,0 l/m 0,0 km/h (0 Bft) - - -9,2 C 13,3 C
16.03.2011 16:00 13,1 C 12,8 C 20 % 34 % 998 hPa 0,0 l/m 0,0 km/h (0 Bft) - - -9,3 C 13,1 C
16.03.2011 17:00 12,3 C 11,8 C 20 % 37 % 998 hPa 0,0 l/m 0,0 km/h (0 Bft) - - -10,0 C 12,3 C
16.03.2011 18:00 10,6 C 10,2 C 25 % 42 % 999 hPa 0,0 l/m 0,0 km/h (0 Bft) - - -8,9 C 10,6 C
16.03.2011 19:00 9,4 C 9,1 C 30 % 45 % 999 hPa 0,0 l/m 0,0 km/h (0 Bft) - - -7,5 C 9,4 C
16.03.2011 20:00 9,2 C 8,9 C 30 % 46 % 999 hPa 0,0 l/m 0,0 km/h (0 Bft) - - -7,7 C 9,2 C
16.03.2011 21:00 8,8 C 8,5 C 32 % 47 % 999 hPa 0,0 l/m 0,0 km/h (0 Bft) - - -7,2 C 8,8 C
16.03.2011 22:00 8,6 C 8,2 C 33 % 49 % 999 hPa 0,0 l/m 0,0 km/h (0 Bft) - - -7,0 C 8,6 C
16.03.2011 23:00 8,3 C 8,0 C 33 % 50 % 999 hPa 0,0 l/m 0,0 km/h (0 Bft) - - -7,0 C 8,3 C
17.03.2011 00:00 7,9 C 7,6 C 34 % 50 % 999 hPa 0,0 l/m 0,0 km/h (0 Bft) - - -7,1 C 7,9 C
17.03.2011 01:00 7,9 C 7,5 C 35 % 51 % 999 hPa 0,0 l/m 0,0 km/h (0 Bft) - - -6,6 C 7,9 C
17.03.2011 02:00 7,8 C 7,5 C 35 % 52 % 998 hPa 0,0 l/m 0,0 km/h (0 Bft) - - -6,7 C 7,8 C
17.03.2011 03:00 7,8 C 7,4 C 36 % 52 % 998 hPa 0,0 l/m 0,0 km/h (0 Bft) - - -6,5 C 7,8 C
17.03.2011 04:00 7,5 C 7,1 C 36 % 53 % 998 hPa 0,0 l/m 0,0 km/h (0 Bft) - - -6,6 C 7,5 C
17.03.2011 05:00 7,4 C 7,1 C 37 % 54 % 999 hPa 0,0 l/m 0,0 km/h (0 Bft) - - -6,3 C 7,4 C
17.03.2011 06:00 7,4 C 7,0 C 40 % 56 % 999 hPa 0,0 l/m 0,0 km/h (0 Bft) - - -5,5 C 7,4 C
17.03.2011 07:00 7,1 C 6,9 C 40 % 57 % 1000 hPa 0,0 l/m 0,0 km/h (0 Bft) - - -5,7 C 7,1 C
17.03.2011 08:00 7,3 C 7,1 C 38 % 54 % 1000 hPa 0,0 l/m 0,0 km/h (0 Bft) - - -6,3 C 7,3 C
17.03.2011 09:00 7,7 C 7,9 C 34 % 49 % 1001 hPa 0,0 l/m 0,0 km/h (0 Bft) - - -7,2 C 7,7 C
17.03.2011 10:00 7,4 C 7,4 C 34 % 49 % 1001 hPa 0,0 l/m 0,0 km/h (0 Bft) - - -7,6 C 7,4 C
17.03.2011 11:00 7,8 C 7,8 C 32 % 47 % 1002 hPa 0,0 l/m 0,0 km/h (0 Bft) - - -7,8 C 7,8 C
17.03.2011 12:00 8,0 C 8,3 C 30 % 45 % 1003 hPa 0,0 l/m 0,0 km/h (0 Bft) - - -8,5 C 8,0 C
17.03.2011 13:00 9,3 C 9,8 C 26 % 39 % 1003 hPa 0,0 l/m 0,0 km/h (0 Bft) - - -9,5 C 9,3 C
17.03.2011 14:00 8,4 C 8,7 C 29 % 43 % 1003 hPa 0,0 l/m 0,0 km/h (0 Bft) - - -8,6 C 8,4 C
17.03.2011 15:00 7,0 C 7,2 C 34 % 49 % 1004 hPa 0,0 l/m 0,0 km/h (0 Bft) - - -7,8 C 7,0 C
17.03.2011 16:00 6,9 C 6,9 C 37 % 51 % 1005 hPa 0,0 l/m 0,0 km/h (0 Bft) - - -7,0 C 6,9 C
17.03.2011 17:00 6,4 C 6,4 C 39 % 54 % 1006 hPa 0,0 l/m 0,0 km/h (0 Bft) - - -6,5 C 6,4 C
17.03.2011 18:00 6,6 C 6,4 C 40 % 56 % 1006 hPa 0,0 l/m 0,0 km/h (0 Bft) - - -6,1 C 6,6 C
17.03.2011 19:00 6,4 C 6,3 C 40 % 56 % 1008 hPa 0,0 l/m 0,0 km/h (0 Bft) - - -6,2 C 6,4 C
17.03.2011 20:00 6,4 C 6,1 C 41 % 57 % 1009 hPa 0,0 l/m 0,0 km/h (0 Bft) - - -5,9 C 6,4 C
17.03.2011 21:00 6,1 C 5,9 C 41 % 57 % 1010 hPa 0,0 l/m 0,0 km/h (0 Bft) - - -6,2 C 6,1 C
17.03.2011 22:00 5,8 C 5,6 C 43 % 58 % 1010 hPa 0,0 l/m 0,0 km/h (0 Bft) - - -6,0 C 5,8 C
17.03.2011 23:00 5,6 C 5,6 C 42 % 58 % 1011 hPa 0,0 l/m 0,0 km/h (0 Bft) - - -6,3 C 5,6 C
18.03.2011 00:00 5,6 C 5,4 C 42 % 58 % 1011 hPa 0,0 l/m 0,0 km/h (0 Bft) - - -6,5 C 5,6 C
18.03.2011 01:00 5,5 C 5,4 C 43 % 59 % 1012 hPa 0,0 l/m 0,0 km/h (0 Bft) - - -6,2 C 5,5 C
18.03.2011 02:00 5,1 C 5,0 C 45 % 60 % 1013 hPa 0,0 l/m 0,0 km/h (0 Bft) - - -5,9 C 5,1 C
18.03.2011 03:00 4,9 C 4,8 C 45 % 60 % 1013 hPa 0,0 l/m 0,0 km/h (0 Bft) - - -6,2 C 4,9 C
18.03.2011 04:00 4,8 C 4,6 C 43 % 58 % 1013 hPa 0,0 l/m 0,0 km/h (0 Bft) - - -6,9 C 4,8 C
18.03.2011 05:00 4,7 C 4,6 C 43 % 58 % 1014 hPa 0,0 l/m 0,0 km/h (0 Bft) - - -6,9 C 4,7 C
18.03.2011 06:00 4,4 C 4,4 C 43 % 58 % 1015 hPa 0,0 l/m 0,0 km/h (0 Bft) - - -7,0 C 4,4 C
18.03.2011 07:00 4,4 C 4,3 C 44 % 60 % 1015 hPa 0,0 l/m 0,0 km/h (0 Bft) - - -6,8 C 4,4 C
18.03.2011 08:00 4,3 C 4,1 C 41 % 56 % 1016 hPa 0,0 l/m 0,0 km/h (0 Bft) - - -7,9 C 4,3 C
18.03.2011 09:00 4,6 C 4,5 C 41 % 55 % 1016 hPa 0,0 l/m 0,0 km/h (0 Bft) - - -7,7 C 4,6 C
18.03.2011 10:00 5,2 C 5,4 C 38 % 51 % 1017 hPa 0,0 l/m 0,0 km/h (0 Bft) - - -8,1 C 5,2 C
18.03.2011 11:00 6,2 C 6,7 C 29 % 43 % 1017 hPa 0,0 l/m 0,0 km/h (0 Bft) - - -10,7 C 6,2 C
18.03.2011 12:00 7,5 C 7,9 C 20 % 36 % 1017 hPa 0,0 l/m 0,0 km/h (0 Bft) - - -14,0 C 7,5 C
18.03.2011 13:00 9,0 C 9,6 C 20 % 29 % 1017 hPa 0,0 l/m 0,0 km/h (0 Bft) - - -12,7 C 9,0 C
18.03.2011 14:00 9,4 C 9,9 C 20 % 27 % 1017 hPa 0,0 l/m 0,0 km/h (0 Bft) - - -12,3 C 9,4 C
18.03.2011 15:00 10,1 C 10,3 C 20 % 27 % 1017 hPa 0,0 l/m 0,0 km/h (0 Bft) - - -11,8 C 10,1 C
18.03.2011 16:00 9,4 C 9,4 C 20 % 30 % 1017 hPa 0,0 l/m 0,0 km/h (0 Bft) - - -12,4 C 9,4 C
18.03.2011 17:00 8,8 C 8,1 C 20 % 35 % 1017 hPa 0,0 l/m 0,0 km/h (0 Bft) - - -12,9 C 8,8 C
18.03.2011 18:00 8,8 C 6,9 C 20 % 40 % 1017 hPa 0,0 l/m 0,0 km/h (0 Bft) - - -12,9 C 8,8 C
18.03.2011 19:00 8,8 C 6,3 C 20 % 43 % 1017 hPa 0,0 l/m 0,0 km/h (0 Bft) - - -12,9 C 8,8 C
18.03.2011 20:00 8,8 C 5,9 C 20 % 47 % 1017 hPa 0,0 l/m 0,0 km/h (0 Bft) - - -12,9 C 8,8 C
18.03.2011 21:00 8,8 C 5,5 C 20 % 51 % 1017 hPa 0,0 l/m 0,0 km/h (0 Bft) - - -12,9 C 8,8 C
18.03.2011 22:00 4,8 C 4,8 C 47 % 57 % 1017 hPa 0,4 l/m 0,0 km/h (0 Bft) - - -5,5 C 4,8 C
18.03.2011 23:00 4,6 C 4,4 C 51 % 63 % 1017 hPa 1,8 l/m 0,0 km/h (0 Bft) - - -4,6 C 4,6 C
19.03.2011 00:00 4,6 C 4,5 C 57 % 68 % 1017 hPa 1,4 l/m 0,0 km/h (0 Bft) - - -3,2 C 4,6 C
19.03.2011 01:00 4,6 C 4,4 C 62 % 72 % 1017 hPa 0,7 l/m 0,0 km/h (0 Bft) - - -2,2 C 4,6 C
19.03.2011 02:00 4,6 C 4,4 C 67 % 75 % 1017 hPa 0,7 l/m 0,0 km/h (0 Bft) - - -1,1 C 4,6 C
19.03.2011 03:00 4,6 C 4,3 C 70 % 77 % 1017 hPa 0,4 l/m 0,0 km/h (0 Bft) - - -0,5 C 4,6 C
19.03.2011 04:00 4,4 C 4,1 C 72 % 79 % 1018 hPa 0,0 l/m 0,0 km/h (0 Bft) - - -0,3 C 4,4 C
19.03.2011 05:00 3,8 C 3,4 C 71 % 79 % 1018 hPa 0,0 l/m 0,0 km/h (0 Bft) - - -1,0 C 3,8 C
19.03.2011 06:00 3,7 C 3,3 C 72 % 80 % 1019 hPa 0,0 l/m 0,0 km/h (0 Bft) - - -1,0 C 3,7 C
19.03.2011 07:00 4,1 C 3,6 C 69 % 81 % 1020 hPa 0,0 l/m 0,0 km/h (0 Bft) - - -1,1 C 4,1 C
19.03.2011 08:00 4,7 C 4,2 C 62 % 79 % 1022 hPa 0,0 l/m 0,0 km/h (0 Bft) - - -2,1 C 4,7 C
19.03.2011 09:00 6,9 C 6,7 C 44 % 64 % 1022 hPa 0,0 l/m 0,0 km/h (0 Bft) - - -4,8 C 6,9 C
19.03.2011 10:00 7,5 C 7,2 C 33 % 48 % 1023 hPa 0,0 l/m 0,0 km/h (0 Bft) - - -7,7 C 7,5 C
19.03.2011 11:00 7,9 C 7,9 C 31 % 46 % 1024 hPa 0,0 l/m 0,0 km/h (0 Bft) - - -8,4 C 7,9 C
19.03.2011 12:00 8,3 C 8,1 C 28 % 42 % 1025 hPa 0,0 l/m 0,0 km/h (0 Bft) - - -9,4 C 8,3 C
19.03.2011 13:00 10,5 C 10,2 C 27 % 36 % 1025 hPa 0,0 l/m 0,0 km/h (0 Bft) - - -7,9 C 10,5 C
19.03.2011 14:00 14,7 C 13,9 C 20 % 26 % 1025 hPa 0,0 l/m 0,0 km/h (0 Bft) - - -8,0 C 14,7 C
19.03.2011 15:00 16,2 C 16,0 C 20 % 20 % 1024 hPa 0,0 l/m 0,0 km/h (0 Bft) - - -6,8 C 16,2 C
19.03.2011 16:00 15,3 C 11,4 C 20 % 20 % 1024 hPa 0,0 l/m 0,0 km/h (0 Bft) - - -7,5 C 15,3 C
Min-Datum _ 15.03.11 15.03.11 14.03.11 15.03.11 16.03.11 - 14.03.11 - 18.03.11 15.03.11
_ Min-Zeit 04:07 04:07 12:07 10:37 16:37 - 00:07 - 12:07 04:07
Minimum _ 0,9 C 0,3 C 20 % 20 % 998 hPa - 0,0 km/h (0 Bft) - -14,8 C 0,9 C
Max-Datum _ 15.03.11 15.03.11 15.03.11 19.03.11 19.03.11 18.03.11 14.03.11 - 15.03.11 15.03.11
_ Max-Zeit 15:07 12:37 09:37 07:07 12:07 23:07 00:07 - 15:07 15:07
Maximum _ 28,8 C 30,8 C 73 % 81 % 1025 hPa 1,8 l/m 0,0 km/h
- - (0 Bft)
- 3,6 C 28,8 C
Durchschnitt _ 8,8 C 9,0 C 38 % 49 % 1009 hPa #5,8 l/m 0,0 km/h (0 Bft) - - -6,0 C 8,8 C
©2001-2010 Bettendroffer Claude